KLWS/LWS METAR and TAF weather

Enter ICAO airport designator
Station Type Date Time Source
KLWS METAR 2019/06/18 14:56 UTC NOAA

KLWS 181456Z 28004KT 10SM FEW085 22/10 A3003 RMK AO2 SLP159 T02170100 51018


Station Type Date Time Source
KLWS Decoded METAR 2019/06/18 14:56 UTC NOAA

LEWISTON NEZ PERCE CO AIRPORT , ID, United States (KLWS) 46-22N 117-01W 438M
Jun 18, 2019 - 10:56 AM EDT / 2019.06.18 1456 UTC
Wind: from the W (280 degrees) at 5 MPH (4 KT):0
Visibility: 10 mile(s):0
Sky conditions: mostly clear
Temperature: 71.1 F (21.7 C)
Dew Point: 50.0 F (10.0 C)
Relative Humidity: 47%
Pressure (altimeter): 30.03 in. Hg (1016 hPa)
Pressure tendency: 0.05 inches (1.8 hPa) higher than three hours ago
ob: KLWS 181456Z 28004KT 10SM FEW085 22/10 A3003 RMK AO2 SLP159 T02170100 51018
cycle: 15

Station Type Date Time Source
KLWS TAF 2019/06/18 12:22 UTC NOAA

TAF KLWS 181120Z 1812/1912 16004KT P6SM FEW250
FM181800 33007G14KT P6SM FEW250
FM190400 25007KT P6SM FEW250
FM190700 25007G14KT P6SM FEW250

Example: see airport list